sensor_id;sensor_type;location;lat;lon;timestamp;pressure;altitude;pressure_sealevel;temperature;humidity
30636;BME280;17400;52.392;9.750;2023-05-16T00:01:28;100794.50;;;12.66;100.00
30636;BME280;17400;52.392;9.750;2023-05-16T00:03:56;100803.50;;;12.73;100.00
30636;BME280;17400;52.392;9.750;2023-05-16T00:06:24;100803.72;;;12.72;100.00
30636;BME280;17400;52.392;9.750;2023-05-16T00:08:52;100808.50;;;12.76;100.00
30636;BME280;17400;52.392;9.750;2023-05-16T00:11:19;100799.31;;;12.77;100.00
30636;BME280;17400;52.392;9.750;2023-05-16T00:13:49;100795.78;;;12.70;100.00
30636;BME280;17400;52.392;9.750;2023-05-16T00:16:17;100797.63;;;12.76;100.00
30636;BME280;17400;52.392;9.750;2023-05-16T00:18:47;100799.75;;;12.74;100.00
30636;BME280;17400;52.392;9.750;2023-05-16T00:21:15;100804.31;;;12.74;100.00
30636;BME280;17400;52.392;9.750;2023-05-16T00:23:43;100801.22;;;12.70;100.00
30636;BME280;17400;52.392;9.750;2023-05-16T00:26:11;100796.16;;;12.74;100.00
30636;BME280;17400;52.392;9.750;2023-05-16T00:28:38;100800.56;;;12.81;100.00
30636;BME280;17400;52.392;9.750;2023-05-16T00:31:07;100797.44;;;12.85;100.00
30636;BME280;17400;52.392;9.750;2023-05-16T00:33:35;100796.59;;;12.77;100.00
30636;BME280;17400;52.392;9.750;2023-05-16T00:36:03;100798.06;;;12.73;100.00
30636;BME280;17400;52.392;9.750;2023-05-16T00:38:31;100802.66;;;12.79;100.00
30636;BME280;17400;52.392;9.750;2023-05-16T00:40:59;100799.09;;;12.86;100.00
30636;BME280;17400;52.392;9.750;2023-05-16T00:43:27;100789.66;;;12.95;100.00
30636;BME280;17400;52.392;9.750;2023-05-16T00:45:55;100797.00;;;13.01;100.00
30636;BME280;17400;52.392;9.750;2023-05-16T00:48:25;100786.13;;;13.01;100.00
30636;BME280;17400;52.392;9.750;2023-05-16T00:50:53;100797.44;;;12.91;100.00
30636;BME280;17400;52.392;9.750;2023-05-16T00:53:21;100794.28;;;12.88;100.00
30636;BME280;17400;52.392;9.750;2023-05-16T00:55:50;100802.47;;;12.74;100.00
30636;BME280;17400;52.392;9.750;2023-05-16T00:58:18;100801.59;;;12.74;100.00
30636;BME280;17400;52.392;9.750;2023-05-16T01:00:46;100802.66;;;12.79;100.00
30636;BME280;17400;52.392;9.750;2023-05-16T01:03:14;100794.72;;;12.85;100.00
30636;BME280;17400;52.392;9.750;2023-05-16T01:05:44;100806.00;;;12.81;100.00
30636;BME280;17400;52.392;9.750;2023-05-16T01:08:12;100802.84;;;12.78;100.00
30636;BME280;17400;52.392;9.750;2023-05-16T01:10:47;100806.22;;;12.73;100.00
30636;BME280;17400;52.392;9.750;2023-05-16T01:13:22;100801.81;;;12.72;100.00
30636;BME280;17400;52.392;9.750;2023-05-16T01:15:55;100806.81;;;12.75;100.00
30636;BME280;17400;52.392;9.750;2023-05-16T01:18:31;100813.72;;;12.71;100.00
30636;BME280;17400;52.392;9.750;2023-05-16T01:21:07;100807.88;;;12.61;100.00
30636;BME280;17400;52.392;9.750;2023-05-16T01:23:48;100810.38;;;12.69;100.00
30636;BME280;17400;52.392;9.750;2023-05-16T01:26:21;100811.63;;;12.73;100.00
30636;BME280;17400;52.392;9.750;2023-05-16T01:28:53;100810.59;;;12.81;100.00
30636;BME280;17400;52.392;9.750;2023-05-16T01:31:22;100800.56;;;12.81;100.00
30636;BME280;17400;52.392;9.750;2023-05-16T01:33:50;100791.56;;;12.88;100.00
30636;BME280;17400;52.392;9.750;2023-05-16T01:36:23;100808.69;;;12.95;100.00
30636;BME280;17400;52.392;9.750;2023-05-16T01:39:03;100803.25;;;12.95;100.00
30636;BME280;17400;52.392;9.750;2023-05-16T01:41:42;100809.56;;;12.89;100.00
30636;BME280;17400;52.392;9.750;2023-05-16T01:44:17;100807.25;;;12.79;100.00
30636;BME280;17400;52.392;9.750;2023-05-16T01:46:52;100803.69;;;12.78;100.00
30636;BME280;17400;52.392;9.750;2023-05-16T01:49:25;100800.34;;;12.83;100.00
30636;BME280;17400;52.392;9.750;2023-05-16T01:51:57;100800.78;;;12.87;100.00
30636;BME280;17400;52.392;9.750;2023-05-16T01:54:30;100806.41;;;12.78;100.00
30636;BME280;17400;52.392;9.750;2023-05-16T01:57:03;100816.63;;;12.90;100.00
30636;BME280;17400;52.392;9.750;2023-05-16T01:59:32;100814.56;;;12.98;100.00
30636;BME280;17400;52.392;9.750;2023-05-16T02:02:01;100809.94;;;12.92;100.00
30636;BME280;17400;52.392;9.750;2023-05-16T02:04:29;100815.81;;;12.96;100.00
30636;BME280;17400;52.392;9.750;2023-05-16T02:06:56;100814.97;;;13.02;100.00
30636;BME280;17400;52.392;9.750;2023-05-16T02:09:26;100816.22;;;12.99;100.00
30636;BME280;17400;52.392;9.750;2023-05-16T02:11:53;100817.06;;;12.87;100.00
30636;BME280;17400;52.392;9.750;2023-05-16T02:14:22;100828.16;;;12.92;100.00
30636;BME280;17400;52.392;9.750;2023-05-16T02:16:51;100822.06;;;12.96;100.00
30636;BME280;17400;52.392;9.750;2023-05-16T02:19:19;100820.41;;;13.02;100.00
30636;BME280;17400;52.392;9.750;2023-05-16T02:21:47;100808.50;;;13.03;100.00
30636;BME280;17400;52.392;9.750;2023-05-16T02:24:15;100811.19;;;12.96;100.00
30636;BME280;17400;52.392;9.750;2023-05-16T02:26:42;100816.25;;;12.93;100.00
30636;BME280;17400;52.392;9.750;2023-05-16T02:29:10;100809.34;;;12.97;100.00
30636;BME280;17400;52.392;9.750;2023-05-16T02:31:39;100819.16;;;12.98;100.00
30636;BME280;17400;52.392;9.750;2023-05-16T02:34:08;100821.66;;;12.93;100.00
30636;BME280;17400;52.392;9.750;2023-05-16T02:36:36;100820.63;;;12.94;100.00
30636;BME280;17400;52.392;9.750;2023-05-16T02:39:04;100819.16;;;12.78;100.00
30636;BME280;17400;52.392;9.750;2023-05-16T02:41:33;100830.66;;;12.80;100.00
30636;BME280;17400;52.392;9.750;2023-05-16T02:44:00;100832.34;;;12.74;100.00
30636;BME280;17400;52.392;9.750;2023-05-16T02:46:33;100836.69;;;12.75;100.00
30636;BME280;17400;52.392;9.750;2023-05-16T02:49:03;100839.22;;;12.70;100.00
30636;BME280;17400;52.392;9.750;2023-05-16T02:51:31;100833.16;;;12.75;100.00
30636;BME280;17400;52.392;9.750;2023-05-16T02:53:59;100835.88;;;12.81;100.00
30636;BME280;17400;52.392;9.750;2023-05-16T02:56:26;100843.19;;;12.81;100.00
30636;BME280;17400;52.392;9.750;2023-05-16T02:58:54;100841.31;;;12.75;100.00
30636;BME280;17400;52.392;9.750;2023-05-16T03:01:22;100846.13;;;12.79;100.00
30636;BME280;17400;52.392;9.750;2023-05-16T03:03:50;100839.22;;;12.77;100.00
30636;BME280;17400;52.392;9.750;2023-05-16T03:06:19;100845.50;;;12.77;100.00
30636;BME280;17400;52.392;9.750;2023-05-16T03:08:47;100844.66;;;12.70;100.00
30636;BME280;17400;52.392;9.750;2023-05-16T03:11:16;100851.72;;;12.51;100.00
30636;BME280;17400;52.392;9.750;2023-05-16T03:13:46;100855.09;;;12.53;100.00
30636;BME280;17400;52.392;9.750;2023-05-16T03:16:13;100850.28;;;12.55;100.00
30636;BME280;17400;52.392;9.750;2023-05-16T03:18:42;100860.09;;;12.49;100.00
30636;BME280;17400;52.392;9.750;2023-05-16T03:21:10;100857.34;;;12.36;100.00
30636;BME280;17400;52.392;9.750;2023-05-16T03:23:39;100866.16;;;12.45;100.00
30636;BME280;17400;52.392;9.750;2023-05-16T03:26:07;100873.63;;;12.29;100.00
30636;BME280;17400;52.392;9.750;2023-05-16T03:28:35;100865.50;;;12.36;100.00
30636;BME280;17400;52.392;9.750;2023-05-16T03:31:03;100874.47;;;12.37;100.00
30636;BME280;17400;52.392;9.750;2023-05-16T03:33:31;100875.91;;;12.26;100.00
30636;BME280;17400;52.392;9.750;2023-05-16T03:35:59;100880.84;;;12.09;100.00
30636;BME280;17400;52.392;9.750;2023-05-16T03:38:27;100885.69;;;12.13;100.00
30636;BME280;17400;52.392;9.750;2023-05-16T03:40:57;100881.72;;;12.09;100.00
30636;BME280;17400;52.392;9.750;2023-05-16T03:43:24;100887.16;;;12.16;100.00
30636;BME280;17400;52.392;9.750;2023-05-16T03:45:52;100888.66;;;12.25;100.00
30636;BME280;17400;52.392;9.750;2023-05-16T03:48:20;100892.00;;;12.34;100.00
30636;BME280;17400;52.392;9.750;2023-05-16T03:50:48;100897.41;;;12.27;100.00
30636;BME280;17400;52.392;9.750;2023-05-16T03:53:17;100896.78;;;12.19;100.00
30636;BME280;17400;52.392;9.750;2023-05-16T03:55:45;100903.22;;;12.18;100.00
30636;BME280;17400;52.392;9.750;2023-05-16T03:58:16;100899.47;;;12.19;100.00
30636;BME280;17400;52.392;9.750;2023-05-16T04:00:43;100896.59;;;12.27;100.00
30636;BME280;17400;52.392;9.750;2023-05-16T04:03:12;100893.63;;;12.22;100.00
30636;BME280;17400;52.392;9.750;2023-05-16T04:05:40;100899.47;;;12.19;100.00
30636;BME280;17400;52.392;9.750;2023-05-16T04:08:08;100893.22;;;12.25;100.00
30636;BME280;17400;52.392;9.750;2023-05-16T04:10:35;100896.78;;;12.25;100.00
30636;BME280;17400;52.392;9.750;2023-05-16T04:13:03;100898.41;;;12.20;100.00
30636;BME280;17400;52.392;9.750;2023-05-16T04:15:32;100905.53;;;12.27;100.00
30636;BME280;17400;52.392;9.750;2023-05-16T04:18:00;100906.78;;;12.25;100.00
30636;BME280;17400;52.392;9.750;2023-05-16T04:20:28;100905.13;;;12.24;100.00
30636;BME280;17400;52.392;9.750;2023-05-16T04:22:58;100908.25;;;12.21;100.00
30636;BME280;17400;52.392;9.750;2023-05-16T04:25:26;100910.13;;;12.20;100.00
30636;BME280;17400;52.392;9.750;2023-05-16T04:27:54;100914.72;;;12.26;100.00
30636;BME280;17400;52.392;9.750;2023-05-16T04:30:22;100909.13;;;12.28;100.00
30636;BME280;17400;52.392;9.750;2023-05-16T04:32:51;100907.41;;;12.20;100.00
30636;BME280;17400;52.392;9.750;2023-05-16T04:35:19;100910.13;;;12.20;100.00
30636;BME280;17400;52.392;9.750;2023-05-16T04:37:48;100919.50;;;12.11;100.00
30636;BME280;17400;52.392;9.750;2023-05-16T04:40:16;100919.22;;;11.99;100.00
30636;BME280;17400;52.392;9.750;2023-05-16T04:42:43;100925.69;;;11.98;100.00
30636;BME280;17400;52.392;9.750;2023-05-16T04:45:11;100923.38;;;11.95;100.00
30636;BME280;17400;52.392;9.750;2023-05-16T04:47:39;100931.75;;;12.00;100.00
30636;BME280;17400;52.392;9.750;2023-05-16T04:50:09;100938.44;;;11.97;100.00
30636;BME280;17400;52.392;9.750;2023-05-16T04:52:37;100940.66;;;11.94;100.00
30636;BME280;17400;52.392;9.750;2023-05-16T04:55:06;100949.31;;;11.76;100.00
30636;BME280;17400;52.392;9.750;2023-05-16T04:57:33;100946.00;;;11.80;100.00
30636;BME280;17400;52.392;9.750;2023-05-16T05:00:01;100948.31;;;11.83;100.00
30636;BME280;17400;52.392;9.750;2023-05-16T05:02:32;100948.75;;;11.87;100.00
30636;BME280;17400;52.392;9.750;2023-05-16T05:05:00;100960.44;;;11.88;100.00
30636;BME280;17400;52.392;9.750;2023-05-16T05:07:30;100967.22;;;11.98;100.00
30636;BME280;17400;52.392;9.750;2023-05-16T05:09:57;100975.03;;;11.87;100.00
30636;BME280;17400;52.392;9.750;2023-05-16T05:12:25;100975.88;;;11.87;100.00
30636;BME280;17400;52.392;9.750;2023-05-16T05:14:53;100978.41;;;11.89;100.00
30636;BME280;17400;52.392;9.750;2023-05-16T05:17:21;100985.88;;;11.87;100.00
30636;BME280;17400;52.392;9.750;2023-05-16T05:19:49;100987.06;;;11.77;100.00
30636;BME280;17400;52.392;9.750;2023-05-16T05:22:17;100986.22;;;11.70;100.00
30636;BME280;17400;52.392;9.750;2023-05-16T05:24:46;100991.09;;;11.81;100.00
30636;BME280;17400;52.392;9.750;2023-05-16T05:27:13;100990.56;;;11.64;100.00
30636;BME280;17400;52.392;9.750;2023-05-16T05:29:41;100992.09;;;11.74;100.00
30636;BME280;17400;52.392;9.750;2023-05-16T05:32:08;100993.75;;;11.75;100.00
30636;BME280;17400;52.392;9.750;2023-05-16T05:34:37;100999.13;;;11.68;100.00
30636;BME280;17400;52.392;9.750;2023-05-16T05:37:04;101005.34;;;11.62;100.00
30636;BME280;17400;52.392;9.750;2023-05-16T05:39:32;101004.06;;;11.58;99.32
30636;BME280;17400;52.392;9.750;2023-05-16T05:42:01;101013.47;;;11.62;98.14
30636;BME280;17400;52.392;9.750;2023-05-16T05:44:30;101020.09;;;11.53;98.46
30636;BME280;17400;52.392;9.750;2023-05-16T05:46:57;101013.06;;;11.65;97.79
30636;BME280;17400;52.392;9.750;2023-05-16T05:49:25;101026.06;;;11.70;96.18
30636;BME280;17400;52.392;9.750;2023-05-16T05:51:53;101032.56;;;11.75;95.72
30636;BME280;17400;52.392;9.750;2023-05-16T05:54:22;101037.22;;;11.81;95.84
30636;BME280;17400;52.392;9.750;2023-05-16T05:56:50;101040.78;;;11.89;94.28
30636;BME280;17400;52.392;9.750;2023-05-16T05:59:19;101037.69;;;11.92;93.67
30636;BME280;17400;52.392;9.750;2023-05-16T06:01:46;101042.63;;;11.81;94.26
30636;BME280;17400;52.392;9.750;2023-05-16T06:04:18;101054.75;;;11.86;94.86
30636;BME280;17400;52.392;9.750;2023-05-16T06:06:47;101058.00;;;11.74;92.78
30636;BME280;17400;52.392;9.750;2023-05-16T06:09:14;101066.69;;;11.41;96.04
30636;BME280;17400;52.392;9.750;2023-05-16T06:11:42;101063.59;;;11.44;96.24
30636;BME280;17400;52.392;9.750;2023-05-16T06:14:12;101069.91;;;11.52;96.17
30636;BME280;17400;52.392;9.750;2023-05-16T06:16:41;101082.97;;;11.63;94.92
30636;BME280;17400;52.392;9.750;2023-05-16T06:19:09;101084.19;;;11.60;95.76
30636;BME280;17400;52.392;9.750;2023-05-16T06:21:41;101079.84;;;11.66;94.46
30636;BME280;17400;52.392;9.750;2023-05-16T06:24:09;101082.16;;;11.69;93.83
30636;BME280;17400;52.392;9.750;2023-05-16T06:26:38;101087.88;;;11.81;92.47
30636;BME280;17400;52.392;9.750;2023-05-16T06:29:05;101091.84;;;11.78;92.49
30636;BME280;17400;52.392;9.750;2023-05-16T06:31:33;101087.88;;;11.81;90.81
30636;BME280;17400;52.392;9.750;2023-05-16T06:34:02;101088.44;;;11.70;92.20
30636;BME280;17400;52.392;9.750;2023-05-16T06:36:30;101088.91;;;11.80;91.07
30636;BME280;17400;52.392;9.750;2023-05-16T06:38:58;101082.47;;;12.03;88.27
30636;BME280;17400;52.392;9.750;2023-05-16T06:41:25;101085.59;;;12.06;86.38
30636;BME280;17400;52.392;9.750;2023-05-16T06:43:53;101091.31;;;11.90;83.99
30636;BME280;17400;52.392;9.750;2023-05-16T06:46:21;101090.16;;;11.77;83.73
30636;BME280;17400;52.392;9.750;2023-05-16T06:48:48;101096.03;;;11.81;83.82
30636;BME280;17400;52.392;9.750;2023-05-16T06:51:18;101094.78;;;11.83;83.52
30636;BME280;17400;52.392;9.750;2023-05-16T06:53:45;101101.97;;;11.91;80.96
30636;BME280;17400;52.392;9.750;2023-05-16T06:56:13;101104.28;;;11.94;81.01
30636;BME280;17400;52.392;9.750;2023-05-16T06:58:41;101094.78;;;12.05;80.87
30636;BME280;17400;52.392;9.750;2023-05-16T07:01:09;101101.06;;;12.06;79.85
30636;BME280;17400;52.392;9.750;2023-05-16T07:03:37;101102.91;;;12.05;79.14
30636;BME280;17400;52.392;9.750;2023-05-16T07:06:05;101105.72;;;12.12;77.49
30636;BME280;17400;52.392;9.750;2023-05-16T07:08:34;101102.63;;;12.22;77.35
30636;BME280;17400;52.392;9.750;2023-05-16T07:11:02;101107.00;;;12.16;75.07
30636;BME280;17400;52.392;9.750;2023-05-16T07:13:30;101115.50;;;12.13;75.22
30636;BME280;17400;52.392;9.750;2023-05-16T07:16:01;101107.38;;;12.13;74.80
30636;BME280;17400;52.392;9.750;2023-05-16T07:18:33;101114.50;;;12.21;73.48
30636;BME280;17400;52.392;9.750;2023-05-16T07:21:01;101108.06;;;12.22;72.83
30636;BME280;17400;52.392;9.750;2023-05-16T07:23:28;101111.19;;;12.19;72.11
30636;BME280;17400;52.392;9.750;2023-05-16T07:25:57;101112.16;;;12.11;71.60
30636;BME280;17400;52.392;9.750;2023-05-16T07:28:25;101119.69;;;12.15;69.33
30636;BME280;17400;52.392;9.750;2023-05-16T07:30:53;101113.94;;;12.25;68.28
30636;BME280;17400;52.392;9.750;2023-05-16T07:33:29;101115.09;;;12.44;66.66
30636;BME280;17400;52.392;9.750;2023-05-16T07:35:57;101103.69;;;12.56;66.46
30636;BME280;17400;52.392;9.750;2023-05-16T07:38:42;101096.09;;;12.44;66.63
30636;BME280;17400;52.392;9.750;2023-05-16T07:41:11;101113.56;;;12.35;67.59
30636;BME280;17400;52.392;9.750;2023-05-16T07:43:39;101119.81;;;12.64;66.93
30636;BME280;17400;52.392;9.750;2023-05-16T07:46:07;101120.34;;;12.53;63.91
30636;BME280;17400;52.392;9.750;2023-05-16T07:48:34;101118.88;;;12.50;64.27
30636;BME280;17400;52.392;9.750;2023-05-16T07:51:02;101123.94;;;12.53;64.29
30636;BME280;17400;52.392;9.750;2023-05-16T07:53:30;101105.00;;;12.73;63.68
30636;BME280;17400;52.392;9.750;2023-05-16T07:55:58;101114.50;;;12.91;64.08
30636;BME280;17400;52.392;9.750;2023-05-16T07:58:31;101113.69;;;12.97;62.87
30636;BME280;17400;52.392;9.750;2023-05-16T08:01:07;101117.47;;;13.03;61.16
30636;BME280;17400;52.392;9.750;2023-05-16T08:03:35;101123.78;;;13.10;60.75
30636;BME280;17400;52.392;9.750;2023-05-16T08:06:04;101129.47;;;13.22;59.78
30636;BME280;17400;52.392;9.750;2023-05-16T08:08:32;101129.84;;;13.19;57.41
30636;BME280;17400;52.392;9.750;2023-05-16T08:10:59;101127.78;;;13.21;56.73
30636;BME280;17400;52.392;9.750;2023-05-16T08:13:28;101134.03;;;13.14;55.50
30636;BME280;17400;52.392;9.750;2023-05-16T08:15:57;101127.28;;;13.04;56.75
30636;BME280;17400;52.392;9.750;2023-05-16T08:18:25;101131.06;;;13.09;58.66
30636;BME280;17400;52.392;9.750;2023-05-16T08:20:53;101116.44;;;13.10;57.53
30636;BME280;17400;52.392;9.750;2023-05-16T08:23:23;101124.19;;;13.13;56.46
30636;BME280;17400;52.392;9.750;2023-05-16T08:25:51;101118.53;;;13.15;56.24
30636;BME280;17400;52.392;9.750;2023-05-16T08:28:20;101122.78;;;13.24;58.05
30636;BME280;17400;52.392;9.750;2023-05-16T08:30:49;101116.34;;;13.39;57.31
30636;BME280;17400;52.392;9.750;2023-05-16T08:33:26;101130.50;;;13.27;54.80
30636;BME280;17400;52.392;9.750;2023-05-16T08:35:57;101129.84;;;13.19;56.59
30636;BME280;17400;52.392;9.750;2023-05-16T08:38:26;101135.03;;;13.07;58.36
30636;BME280;17400;52.392;9.750;2023-05-16T08:40:54;101134.81;;;13.02;57.11
30636;BME280;17400;52.392;9.750;2023-05-16T08:43:22;101136.31;;;13.17;56.23
30636;BME280;17400;52.392;9.750;2023-05-16T08:45:51;101144.09;;;13.21;55.58
30636;BME280;17400;52.392;9.750;2023-05-16T08:48:22;101131.56;;;13.26;56.30
30636;BME280;17400;52.392;9.750;2023-05-16T08:50:51;101125.06;;;13.21;57.01
30636;BME280;17400;52.392;9.750;2023-05-16T08:53:21;101134.06;;;13.28;57.19
30636;BME280;17400;52.392;9.750;2023-05-16T08:55:52;101136.19;;;13.32;55.95
30636;BME280;17400;52.392;9.750;2023-05-16T08:58:20;101133.53;;;13.46;56.03
30636;BME280;17400;52.392;9.750;2023-05-16T09:00:48;101126.19;;;13.60;55.18
30636;BME280;17400;52.392;9.750;2023-05-16T09:03:17;101130.00;;;13.65;53.96
30636;BME280;17400;52.392;9.750;2023-05-16T09:05:49;101127.28;;;13.65;50.56
30636;BME280;17400;52.392;9.750;2023-05-16T09:08:18;101124.78;;;13.64;50.79
30636;BME280;17400;52.392;9.750;2023-05-16T09:10:46;101124.34;;;13.67;50.40
30636;BME280;17400;52.392;9.750;2023-05-16T09:13:13;101127.69;;;13.76;51.13
30636;BME280;17400;52.392;9.750;2023-05-16T09:15:42;101126.25;;;13.93;51.71
30636;BME280;17400;52.392;9.750;2023-05-16T09:18:11;101122.28;;;13.89;52.64
30636;BME280;17400;52.392;9.750;2023-05-16T09:20:46;101122.25;;;13.69;52.85
30636;BME280;17400;52.392;9.750;2023-05-16T09:23:22;101124.56;;;13.72;53.03
30636;BME280;17400;52.392;9.750;2023-05-16T09:25:52;101126.66;;;13.83;51.85
30636;BME280;17400;52.392;9.750;2023-05-16T09:28:20;101132.09;;;13.97;50.61
30636;BME280;17400;52.392;9.750;2023-05-16T09:30:48;101120.34;;;14.16;51.07
30636;BME280;17400;52.392;9.750;2023-05-16T09:33:16;101116.59;;;14.18;48.70
30636;BME280;17400;52.392;9.750;2023-05-16T09:35:45;101123.94;;;14.10;48.05
30636;BME280;17400;52.392;9.750;2023-05-16T09:38:15;101128.75;;;13.95;48.89
30636;BME280;17400;52.392;9.750;2023-05-16T09:40:43;101122.06;;;13.77;50.00
30636;BME280;17400;52.392;9.750;2023-05-16T09:43:14;101131.88;;;13.65;50.63
30636;BME280;17400;52.392;9.750;2023-05-16T09:45:45;101129.34;;;13.57;51.31
30636;BME280;17400;52.392;9.750;2023-05-16T09:48:14;101133.75;;;13.71;50.37
30636;BME280;17400;52.392;9.750;2023-05-16T09:50:50;101123.31;;;13.95;48.70
30636;BME280;17400;52.392;9.750;2023-05-16T09:53:26;101117.03;;;14.01;47.10
30636;BME280;17400;52.392;9.750;2023-05-16T09:56:01;101125.00;;;14.03;46.95
30636;BME280;17400;52.392;9.750;2023-05-16T09:58:30;101114.31;;;14.08;47.83
30636;BME280;17400;52.392;9.750;2023-05-16T10:00:58;101123.75;;;14.05;47.36
30636;BME280;17400;52.392;9.750;2023-05-16T10:03:26;101126.47;;;14.05;47.26
30636;BME280;17400;52.392;9.750;2023-05-16T10:05:56;101110.97;;;13.99;47.39
30636;BME280;17400;52.392;9.750;2023-05-16T10:08:26;101113.25;;;14.02;47.52
30636;BME280;17400;52.392;9.750;2023-05-16T10:10:55;101114.94;;;13.96;47.83
30636;BME280;17400;52.392;9.750;2023-05-16T10:13:27;101116.63;;;13.91;48.25
30636;BME280;17400;52.392;9.750;2023-05-16T10:15:57;101110.31;;;13.83;48.57
30636;BME280;17400;52.392;9.750;2023-05-16T10:18:28;101110.75;;;13.67;48.62
30636;BME280;17400;52.392;9.750;2023-05-16T10:21:07;101105.09;;;13.69;49.44
30636;BME280;17400;52.392;9.750;2023-05-16T10:23:40;101106.56;;;13.71;48.57
30636;BME280;17400;52.392;9.750;2023-05-16T10:26:09;101110.75;;;13.67;47.82
30636;BME280;17400;52.392;9.750;2023-05-16T10:28:40;101105.94;;;13.82;47.41
30636;BME280;17400;52.392;9.750;2023-05-16T10:31:09;101106.75;;;14.03;48.12
30636;BME280;17400;52.392;9.750;2023-05-16T10:33:38;101097.34;;;14.12;47.33
30636;BME280;17400;52.392;9.750;2023-05-16T10:36:08;101105.50;;;14.12;46.01
30636;BME280;17400;52.392;9.750;2023-05-16T10:38:37;101089.34;;;14.24;45.15
30636;BME280;17400;52.392;9.750;2023-05-16T10:41:06;101073.00;;;14.31;43.46
30636;BME280;17400;52.392;9.750;2023-05-16T10:43:35;101098.78;;;14.28;43.81
30636;BME280;17400;52.392;9.750;2023-05-16T10:46:04;101093.53;;;14.33;43.28
30636;BME280;17400;52.392;9.750;2023-05-16T10:48:34;101093.94;;;14.44;42.79
30636;BME280;17400;52.392;9.750;2023-05-16T10:51:34;101102.75;;;14.32;44.01
30636;BME280;17400;52.392;9.750;2023-05-16T10:54:08;101094.38;;;14.27;44.03
30636;BME280;17400;52.392;9.750;2023-05-16T10:56:36;101103.78;;;14.25;44.54
30636;BME280;17400;52.392;9.750;2023-05-16T10:59:21;101095.44;;;14.33;43.67
30636;BME280;17400;52.392;9.750;2023-05-16T11:01:51;101102.28;;;14.49;44.29
30636;BME280;17400;52.392;9.750;2023-05-16T11:04:19;101095.78;;;14.63;44.07
30636;BME280;17400;52.392;9.750;2023-05-16T11:06:52;101103.31;;;14.68;43.57
30636;BME280;17400;52.392;9.750;2023-05-16T11:09:24;101093.81;;;14.84;43.34
30636;BME280;17400;52.392;9.750;2023-05-16T11:12:00;101095.19;;;15.00;43.24
30636;BME280;17400;52.392;9.750;2023-05-16T11:14:38;101097.72;;;15.08;42.88
30636;BME280;17400;52.392;9.750;2023-05-16T11:17:10;101097.50;;;15.03;42.61
30636;BME280;17400;52.392;9.750;2023-05-16T11:19:41;101100.91;;;14.92;42.44
30636;BME280;17400;52.392;9.750;2023-05-16T11:22:12;101092.50;;;14.93;41.82
30636;BME280;17400;52.392;9.750;2023-05-16T11:24:51;101095.91;;;14.89;42.32
30636;BME280;17400;52.392;9.750;2023-05-16T11:27:21;101091.72;;;14.86;42.33
30636;BME280;17400;52.392;9.750;2023-05-16T11:29:50;101103.06;;;14.76;42.32
30636;BME280;17400;52.392;9.750;2023-05-16T11:32:19;101105.19;;;14.74;43.26
30636;BME280;17400;52.392;9.750;2023-05-16T11:34:49;101092.13;;;14.90;44.60
30636;BME280;17400;52.392;9.750;2023-05-16T11:37:19;101107.19;;;14.99;45.32
30636;BME280;17400;52.392;9.750;2023-05-16T11:39:48;101086.66;;;14.96;45.07
30636;BME280;17400;52.392;9.750;2023-05-16T11:42:17;101097.53;;;15.35;44.41
30636;BME280;17400;52.392;9.750;2023-05-16T11:44:45;101101.16;;;15.86;42.81
30636;BME280;17400;52.392;9.750;2023-05-16T11:47:12;101099.56;;;15.78;45.32
30636;BME280;17400;52.392;9.750;2023-05-16T11:49:41;101105.44;;;15.75;44.51
30636;BME280;17400;52.392;9.750;2023-05-16T11:52:09;101115.00;;;15.59;44.59
30636;BME280;17400;52.392;9.750;2023-05-16T11:54:39;101101.84;;;15.81;43.90
30636;BME280;17400;52.392;9.750;2023-05-16T11:57:08;101092.72;;;15.94;42.37
30636;BME280;17400;52.392;9.750;2023-05-16T11:59:36;101096.06;;;15.96;43.38
30636;BME280;17400;52.392;9.750;2023-05-16T12:02:03;101101.31;;;16.16;42.53
30636;BME280;17400;52.392;9.750;2023-05-16T12:04:32;101095.97;;;16.65;42.30
30636;BME280;17400;52.392;9.750;2023-05-16T12:07:03;101103.16;;;17.15;43.37
30636;BME280;17400;52.392;9.750;2023-05-16T12:09:31;101099.38;;;17.17;41.99
30636;BME280;17400;52.392;9.750;2023-05-16T12:12:03;101098.34;;;16.99;42.35
30636;BME280;17400;52.392;9.750;2023-05-16T12:14:32;101108.06;;;16.58;41.94
30636;BME280;17400;52.392;9.750;2023-05-16T12:17:00;101113.44;;;16.27;40.94
30636;BME280;17400;52.392;9.750;2023-05-16T12:19:30;101115.50;;;15.81;40.04
30636;BME280;17400;52.392;9.750;2023-05-16T12:21:58;101128.28;;;16.13;41.12
30636;BME280;17400;52.392;9.750;2023-05-16T12:24:29;101119.00;;;16.76;40.57
30636;BME280;17400;52.392;9.750;2023-05-16T12:26:57;101103.16;;;17.15;40.33
30636;BME280;17400;52.392;9.750;2023-05-16T12:29:26;101110.47;;;17.64;39.76
30636;BME280;17400;52.392;9.750;2023-05-16T12:31:54;101104.28;;;17.80;39.65
30636;BME280;17400;52.392;9.750;2023-05-16T12:34:22;101100.69;;;17.56;39.54
30636;BME280;17400;52.392;9.750;2023-05-16T12:36:51;101123.16;;;17.46;38.89
30636;BME280;17400;52.392;9.750;2023-05-16T12:39:22;101130.91;;;16.82;41.68
30636;BME280;17400;52.392;9.750;2023-05-16T12:41:50;101134.81;;;16.30;42.61
30636;BME280;17400;52.392;9.750;2023-05-16T12:44:21;101141.19;;;15.99;43.66
30636;BME280;17400;52.392;9.750;2023-05-16T12:46:52;101138.19;;;15.75;44.49
30636;BME280;17400;52.392;9.750;2023-05-16T12:49:21;101148.38;;;15.61;45.21
30636;BME280;17400;52.392;9.750;2023-05-16T12:51:49;101148.06;;;15.44;45.48
30636;BME280;17400;52.392;9.750;2023-05-16T12:54:18;101138.59;;;15.47;45.79
30636;BME280;17400;52.392;9.750;2023-05-16T12:56:46;101142.66;;;15.38;44.53